ADDS METAR Data INFO
IDs: Format: Raw Decoded Include TAF

Data at: 1227 UTC 22 Feb 2018

KLHQ 221153Z AUTO 04012KT 9SM -RA FEW018 FEW047 OVC090 03/02 A3040 RMK AO2 SLP298 P0006 60038 70051 T00330022 10039 20028 58013
KLHQ 221053Z AUTO 03009KT 9SM -RA SCT011 OVC032 03/02 A3043 RMK AO2 RAE30B52UPB30E52 SLP310 P0006 T00280022
KLHQ 220953Z AUTO 04011KT 5SM RA BR FEW009 BKN033 OVC070 03/02 A3043 RMK AO2 SLP308 P0012 T00280017
KLHQ 220853Z AUTO 01009KT 4SM RA BR BKN008 OVC026 03/02 A3044 RMK AO2 SLP311 P0011 60014 T00280017 56018
KLHQ 220847Z AUTO 02010KT 3SM RA BR BKN008 OVC026 03/02 A3043 RMK AO2 P0009
KLHQ 220753Z AUTO 03008KT 6SM -RA BR BKN010 BKN027 OVC048 03/02 A3045 RMK AO2 RAE08B14 SLP317 P0003 T00330017
KLHQ 220743Z AUTO 04010KT 6SM -RA BR SCT010 BKN026 OVC048 03/02 A3045 RMK AO2 RAE08B14 P0002 T00330017
KLHQ 220710Z AUTO 02011KT 10SM SCT028 BKN041 OVC050 03/02 A3045 RMK AO2 RAE08 P0000 T00330022
KLHQ 220653Z AUTO 02010KT 10SM -RA FEW010 BKN028 OVC042 04/02 A3047 RMK AO2 RAB34 SLP320 P0000 T00390022
KLHQ 220627Z AUTO 03009KT 10SM BKN029 OVC040 04/02 A3047 RMK AO2 T00440022
KLHQ 220553Z AUTO 06006KT 10SM OVC030 04/02 A3049 RMK AO2 SLP328 60005 T00440017 10072 20039 56008
KLHQ 220453Z AUTO 07007KT 10SM OVC031 04/02 A3049 RMK AO2 SLP327 T00440022 402060039
KLHQ 220359Z AUTO 05010KT 10SM SCT013 SCT029 OVC070 04/02 A3050 RMK AO2 T00440022
KLHQ 220353Z AUTO 05011KT 10SM BKN012 BKN029 OVC080 04/02 A3051 RMK AO2 SLP334 T00440022
KLHQ 220010Z AUTO 02012KT 7SM RA OVC013 07/05 A3049 RMK AO2 RAB04 P0001 T00670050
KLHQ 212353Z AUTO 02009KT 10SM OVC015 07/06 A3047 RMK AO2 RAB09E51 SLP319 P0001 60002 T00720056 10117 20072 53016
KLHQ 212338Z AUTO 03011KT 9SM -RA OVC015 07/06 A3045 RMK AO2 RAB09 P0000 T00720056
KLHQ 212253Z AUTO 01008KT 10SM OVC013 08/06 A3045 RMK AO2 SLP310 T00830061
KLHQ 212250Z AUTO 02010KT 10SM OVC013 08/06 A3044 RMK AO2
KLHQ 212224Z AUTO 02010KT 10SM BKN015 OVC022 09/07 A3043 RMK AO2 T00890067
KLHQ 212153Z AUTO 04009KT 10SM OVC013 09/07 A3043 RMK AO2 SLP303 T00890067
KLHQ 212123Z AUTO 02010KT 10SM OVC015 09/07 A3040 RMK AO2 T00890072
KLHQ 212101Z AUTO 01009KT 10SM OVC010 09/07 A3041 RMK AO2 T00940072
KLHQ 212053Z AUTO 02012KT 10SM OVC009 09/08 A3040 RMK AO2 SLP294 60001 T00940078 53004
KLHQ 212032Z AUTO 01009KT 10SM OVC009 09/08 A3039 RMK AO2 CIG 005V011 T00940078
KLHQ 212020Z AUTO 35008KT 10SM OVC008 09/08 A3040 RMK AO2 CIG 005V010 T00940078
KLHQ 212010Z AUTO 36012KT 7SM OVC007 09/08 A3039 RMK AO2 CIG 005V011 T00940083
KLHQ 211953Z AUTO 36012KT 9SM OVC009 10/09 A3039 RMK AO2 SLP290 T01000089
KLHQ 211928Z AUTO 34011KT 10SM OVC009 10/09 A3039 RMK AO2 CIG 006V012 T01000089
KLHQ 211910Z AUTO 35010KT 8SM BKN007 OVC011 10/09 A3038 RMK AO2 T01000089
KLHQ 211853Z AUTO 33009KT 7SM BKN008 OVC012 10/09 A3038 RMK AO2 RAB05E27 SLP288 P0001 T01000089
KLHQ 211851Z AUTO 32011KT 8SM OVC010 10/09 A3039 RMK AO2 RAB05E27 P0001
KLHQ 211842Z AUTO 34013KT 9SM OVC008 10/09 A3038 RMK AO2 RAB05E27 P0001 T01000089
KLHQ 211806Z AUTO 33011KT 10SM -RA OVC007 11/10 A3038 RMK AO2 RAB05 P0000 T01110100
KLHQ 211753Z AUTO 32010KT 10SM BKN006 OVC013 12/11 A3036 RMK AO2 RAB1656E20 SLP281 P0001 60006 T01170106 10194 20117 53020
KLHQ 211736Z AUTO 33012KT 7SM BKN006 BKN014 OVC021 12/11 A3036 RMK AO2 RAB1656E20 CIG 005V011 P0001 T01220111
KLHQ 211728Z AUTO 33012G19KT 7SM BKN008 OVC015 12/11 A3035 RMK AO2 RAB1656E20 CIG 006V012 P0001 T01220111
KLHQ 211709Z AUTO 33005KT 8SM -RA SCT008 BKN014 OVC021 14/13 A3035 RMK AO2 RAB1656 P0001 T01440133
KLHQ 211700Z AUTO 34003KT 7SM -RA SCT010 OVC018 15/13 A3034 RMK AO2 RAB1656 P0001 T01500133
KLHQ 211653Z AUTO 35003KT 10SM BKN010 BKN018 OVC055 15/13 A3034 RMK AO2 SLP272 T01500133
KLHQ 211624Z AUTO 34003KT 10SM SCT008 BKN013 OVC065 14/13 A3034 RMK AO2 T01440133
KLHQ 211609Z AUTO 35005KT 10SM FEW008 SCT050 OVC065 14/13 A3033 RMK AO2 T01440128
KLHQ 211553Z AUTO 35003KT 10SM BKN050 OVC065 14/13 A3032 RMK AO2 RAE27 SLP264 P0001 T01440133
KLHQ 211453Z AUTO 33004KT 5SM -RA BR OVC039 14/12 A3030 RMK AO2 RAB1358 SLP259 P0004 60004 T01390122 51050
KLHQ 211353Z AUTO 01005KT 10SM OVC035 14/12 A3026 RMK AO2 SLP243 T01440122
KLHQ 211253Z AUTO 31011KT 10SM OVC033 15/12 A3022 RMK AO2 RAB32E45 SLP232 P0000 T01500122
KLHQ 210753Z AUTO 18013KT 10SM OVC080 20/12 A3014 RMK AO2 SLP199 T02000122
KLHQ 210653Z AUTO 19011G20KT 10SM SCT080 20/12 A3015 RMK AO2 SLP203 T02000122
KLHQ 210553Z AUTO 19011KT 10SM CLR 20/12 A3016 RMK AO2 SLP206 T02000122 10217 20194 58004